Time;durP1;ratioP1;P1;durP2;ratioP2;P2;SDS_P1;SDS_P2;PMS_P1;PMS_P2;Temp;Humidity;BMP_temperature;BMP_pressure;BME280_temperature;BME280_humidity;BME280_pressure;Samples;Min_cycle;Max_cycle;Signal;HPM_P1;HPM_P2
2021/03/18 00:01:29;;;;;;;1.30;0.90;;;24.60;29.70;;;;;;5031176;28;20879;-61
2021/03/18 00:03:55;;;;;;;1.40;0.77;;;24.60;29.80;;;;;;5031085;28;20419;-62
2021/03/18 00:06:21;;;;;;;1.40;0.80;;;24.60;29.80;;;;;;5030131;28;20390;-62
2021/03/18 00:08:47;;;;;;;1.58;0.82;;;24.60;29.80;;;;;;5031001;28;20391;-62
2021/03/18 00:11:16;;;;;;;1.40;0.70;;;24.60;29.80;;;;;;5031115;28;20436;-62
2021/03/18 00:13:43;;;;;;;1.13;0.70;;;24.60;29.80;;;;;;5031060;28;20429;-63
2021/03/18 00:16:10;;;;;;;1.23;0.60;;;24.50;29.70;;;;;;5031052;28;20390;-62
2021/03/18 00:18:48;;;;;;;1.55;0.80;;;24.50;29.70;;;;;;5030329;28;20418;-62
2021/03/18 00:21:14;;;;;;;1.60;0.80;;;24.50;29.70;;;;;;5030988;28;20482;-62
2021/03/18 00:23:39;;;;;;;1.13;0.70;;;24.50;29.70;;;;;;5030975;28;20855;-62
2021/03/18 00:26:06;;;;;;;1.20;0.60;;;24.50;29.70;;;;;;5033340;28;20410;-62
2021/03/18 00:28:33;;;;;;;1.13;0.70;;;24.50;29.60;;;;;;5034177;28;20462;-62
2021/03/18 00:30:59;;;;;;;1.40;0.85;;;24.40;29.70;;;;;;5034372;28;20399;-62
2021/03/18 00:33:25;;;;;;;1.08;0.65;;;24.40;29.70;;;;;;5034664;28;20399;-62
2021/03/18 00:35:52;;;;;;;1.10;0.80;;;24.40;29.70;;;;;;5034402;28;20430;-62
2021/03/18 00:38:18;;;;;;;1.50;0.70;;;24.30;29.70;;;;;;5034099;28;20500;-63
2021/03/18 00:40:47;;;;;;;1.42;0.70;;;24.30;29.70;;;;;;5034239;28;20442;-63
2021/03/18 00:43:15;;;;;;;1.25;0.70;;;24.30;29.70;;;;;;5034191;28;20410;-62
2021/03/18 00:45:44;;;;;;;1.08;0.77;;;24.30;29.60;;;;;;5034310;28;20395;-63
2021/03/18 00:48:10;;;;;;;1.38;0.80;;;24.30;29.60;;;;;;5034508;28;20743;-61
2021/03/18 00:50:38;;;;;;;1.00;0.60;;;24.20;29.70;;;;;;5033818;28;20383;-62
2021/03/18 00:53:04;;;;;;;1.10;0.70;;;24.20;29.70;;;;;;5032859;28;20407;-62
2021/03/18 00:55:30;;;;;;;0.80;0.50;;;24.20;29.70;;;;;;5034147;28;20379;-61
2021/03/18 00:57:55;;;;;;;0.88;0.60;;;24.20;29.70;;;;;;5034036;28;20916;-61
2021/03/18 01:00:30;;;;;;;1.20;0.60;;;24.20;30.10;;;;;;5033616;28;20390;-62
2021/03/18 01:02:56;;;;;;;1.20;0.80;;;24.10;29.70;;;;;;5033980;28;20399;-62
2021/03/18 01:05:53;;;;;;;1.10;0.70;;;24.10;29.50;;;;;;5034034;28;20383;-62
2021/03/18 01:08:25;;;;;;;1.10;0.60;;;24.10;29.60;;;;;;5033311;28;20403;-62
2021/03/18 01:10:55;;;;;;;1.02;0.60;;;24.10;29.60;;;;;;5033842;28;20391;-62
2021/03/18 01:13:21;;;;;;;1.02;0.63;;;24.10;29.60;;;;;;5033855;28;20482;-62
2021/03/18 01:15:53;;;;;;;1.10;0.60;;;24.10;29.70;;;;;;5033725;28;20867;-62
2021/03/18 01:18:21;;;;;;;1.10;0.60;;;24.00;29.60;;;;;;5033516;28;20531;-62
2021/03/18 01:20:47;;;;;;;0.95;0.60;;;24.00;29.60;;;;;;5033496;28;20748;-62
2021/03/18 01:23:13;;;;;;;0.90;0.60;;;24.00;29.50;;;;;;5033606;28;20391;-62
2021/03/18 01:25:39;;;;;;;0.80;0.47;;;23.90;29.60;;;;;;5033521;28;20917;-62
2021/03/18 01:28:05;;;;;;;0.80;0.50;;;23.90;29.60;;;;;;5033471;28;20395;-62
2021/03/18 01:30:31;;;;;;;0.85;0.40;;;23.90;29.60;;;;;;5032867;28;20391;-62
2021/03/18 01:32:58;;;;;;;1.00;0.40;;;23.90;29.60;;;;;;5032031;28;20444;-62
2021/03/18 01:35:24;;;;;;;1.27;0.50;;;23.90;29.70;;;;;;5033426;28;20395;-63
2021/03/18 01:37:51;;;;;;;0.75;0.50;;;23.80;29.50;;;;;;5032305;28;20411;-62
2021/03/18 01:40:26;;;;;;;0.93;0.60;;;23.80;29.60;;;;;;5032732;28;20533;-60
2021/03/18 01:42:52;;;;;;;1.13;0.60;;;23.80;29.50;;;;;;5033209;28;20418;-62
2021/03/18 01:45:18;;;;;;;0.90;0.50;;;23.80;29.60;;;;;;5033238;28;20414;-62
2021/03/18 01:47:47;;;;;;;0.70;0.45;;;23.80;29.60;;;;;;5033173;28;20395;-62
2021/03/18 01:50:15;;;;;;;1.00;0.57;;;23.80;29.70;;;;;;5031710;28;20894;-62
2021/03/18 01:52:41;;;;;;;0.70;0.40;;;23.70;29.50;;;;;;5032648;28;20395;-62
2021/03/18 01:55:10;;;;;;;0.90;0.50;;;23.70;29.40;;;;;;5032940;28;20383;-62
2021/03/18 01:57:38;;;;;;;0.73;0.40;;;23.70;29.70;;;;;;5032591;28;20425;-62
2021/03/18 02:00:08;;;;;;;0.90;0.50;;;23.70;29.70;;;;;;5032823;28;20387;-63
2021/03/18 02:02:35;;;;;;;0.82;0.50;;;23.70;29.70;;;;;;5032352;28;20445;-62
2021/03/18 02:05:02;;;;;;;0.90;0.50;;;23.70;29.60;;;;;;5032742;28;20402;-62
2021/03/18 02:07:28;;;;;;;0.70;0.40;;;23.60;29.60;;;;;;5032843;28;20394;-63
2021/03/18 02:09:54;;;;;;;0.90;0.47;;;23.60;29.60;;;;;;5032612;28;20403;-62
2021/03/18 02:12:19;;;;;;;0.90;0.43;;;23.60;29.70;;;;;;5032435;28;20423;-62
2021/03/18 02:14:46;;;;;;;0.83;0.50;;;23.60;29.70;;;;;;5032391;28;20973;-62
2021/03/18 02:17:21;;;;;;;0.93;0.50;;;23.60;29.70;;;;;;5032504;28;20458;-63
2021/03/18 02:20:15;;;;;;;0.80;0.40;;;23.60;29.70;;;;;;5032553;28;20471;-63
2021/03/18 02:23:02;;;;;;;1.00;0.50;;;23.50;29.60;;;;;;5031975;28;20422;-62
2021/03/18 02:25:40;;;;;;;0.80;0.40;;;23.50;29.70;;;;;;5032436;28;20382;-63
2021/03/18 02:28:33;;;;;;;0.93;0.40;;;23.50;29.70;;;;;;5032513;28;20398;-62
2021/03/18 02:31:00;;;;;;;0.88;0.47;;;23.50;29.70;;;;;;5032164;28;20423;-62
2021/03/18 02:33:37;;;;;;;0.82;0.50;;;23.40;29.70;;;;;;5032423;28;20387;-62
2021/03/18 02:36:18;;;;;;;0.75;0.40;;;23.40;29.70;;;;;;5032152;28;20419;-62
2021/03/18 02:38:50;;;;;;;0.80;0.40;;;23.40;29.70;;;;;;5031538;28;20830;-62
2021/03/18 02:41:20;;;;;;;0.90;0.40;;;23.40;29.70;;;;;;5031864;28;20470;-62
2021/03/18 02:43:50;;;;;;;0.80;0.40;;;23.40;29.70;;;;;;5032088;28;20409;-62
2021/03/18 02:46:18;;;;;;;0.70;0.40;;;23.30;29.70;;;;;;5032145;28;20379;-62
2021/03/18 02:48:46;;;;;;;0.88;0.50;;;23.30;29.70;;;;;;5031571;28;20399;-62
2021/03/18 02:51:16;;;;;;;0.70;0.40;;;23.30;29.70;;;;;;5031935;28;20466;-62
2021/03/18 02:53:45;;;;;;;0.52;0.40;;;23.30;29.70;;;;;;5031881;28;20391;-62
2021/03/18 02:56:15;;;;;;;0.70;0.50;;;23.30;29.70;;;;;;5030408;28;20407;-62
2021/03/18 02:58:43;;;;;;;0.90;0.50;;;23.20;29.70;;;;;;5031486;28;20423;-62
2021/03/18 03:01:09;;;;;;;0.68;0.40;;;23.20;29.70;;;;;;5031810;28;20394;-62
2021/03/18 03:03:35;;;;;;;0.90;0.50;;;23.20;29.80;;;;;;5031827;28;20395;-62
2021/03/18 03:06:05;;;;;;;1.00;0.50;;;23.20;29.80;;;;;;5031747;28;20462;-62
2021/03/18 03:08:32;;;;;;;0.70;0.40;;;23.20;29.80;;;;;;5031290;28;20402;-62
2021/03/18 03:11:00;;;;;;;1.20;0.40;;;23.10;29.80;;;;;;5031620;28;20383;-62
2021/03/18 03:13:29;;;;;;;0.57;0.30;;;23.10;29.80;;;;;;5031672;28;20988;-62
2021/03/18 03:15:57;;;;;;;0.90;0.50;;;23.10;29.80;;;;;;5031605;28;20394;-62
2021/03/18 03:18:24;;;;;;;0.68;0.40;;;23.10;29.80;;;;;;5029959;28;20780;-62
2021/03/18 03:20:53;;;;;;;0.70;0.50;;;23.10;29.80;;;;;;5031396;28;20383;-62
2021/03/18 03:23:20;;;;;;;1.13;0.50;;;23.00;29.80;;;;;;5031641;28;20859;-62
2021/03/18 03:25:46;;;;;;;0.70;0.40;;;23.00;29.70;;;;;;5031525;28;20393;-62
2021/03/18 03:28:13;;;;;;;0.80;0.40;;;23.00;29.70;;;;;;5031384;28;20494;-63
2021/03/18 03:30:39;;;;;;;0.88;0.40;;;23.00;29.80;;;;;;5030737;28;20905;-62
2021/03/18 03:33:07;;;;;;;0.80;0.40;;;23.00;29.80;;;;;;5031438;28;20427;-62
2021/03/18 03:35:34;;;;;;;0.80;0.40;;;22.90;29.70;;;;;;5031411;28;20394;-62
2021/03/18 03:38:00;;;;;;;0.70;0.50;;;22.90;29.80;;;;;;5031252;28;20462;-62
2021/03/18 03:40:26;;;;;;;1.10;0.50;;;22.90;29.70;;;;;;5031121;28;20472;-62
2021/03/18 03:42:51;;;;;;;1.00;0.60;;;22.90;29.80;;;;;;5030902;28;20743;-62
2021/03/18 03:45:17;;;;;;;1.20;0.60;;;22.90;29.80;;;;;;5030005;28;20730;-62
2021/03/18 03:47:44;;;;;;;0.90;0.50;;;22.80;29.70;;;;;;5031308;28;20886;-62
2021/03/18 03:50:15;;;;;;;1.00;0.60;;;22.80;29.80;;;;;;5031251;28;20387;-62
2021/03/18 03:52:57;;;;;;;0.70;0.40;;;22.80;29.70;;;;;;5030780;28;20387;-62
2021/03/18 03:55:40;;;;;;;0.73;0.47;;;22.80;29.80;;;;;;5029885;28;20493;-62
2021/03/18 03:58:29;;;;;;;0.50;0.30;;;22.80;29.80;;;;;;5029697;28;20938;-62
2021/03/18 04:00:57;;;;;;;0.70;0.40;;;22.80;29.90;;;;;;5029220;28;20414;-62
2021/03/18 04:03:25;;;;;;;0.55;0.40;;;22.70;29.80;;;;;;5035160;28;20434;-63
2021/03/18 04:05:53;;;;;;;0.70;0.40;;;22.70;30.30;;;;;;5035155;28;20394;-62
2021/03/18 04:08:23;;;;;;;0.80;0.50;;;22.70;29.80;;;;;;5034724;28;20501;-60
2021/03/18 04:10:51;;;;;;;0.93;0.40;;;22.70;29.90;;;;;;5033835;28;20391;-62
2021/03/18 04:13:17;;;;;;;0.97;0.50;;;22.70;30.00;;;;;;5034177;28;20483;-62
2021/03/18 04:15:44;;;;;;;0.70;0.47;;;22.70;30.00;;;;;;5033793;28;20475;-62
2021/03/18 04:18:11;;;;;;;1.15;0.50;;;22.70;30.30;;;;;;5034154;28;20425;-62
2021/03/18 04:20:39;;;;;;;0.90;0.50;;;22.70;30.30;;;;;;5034392;28;20382;-63
2021/03/18 04:23:09;;;;;;;0.70;0.40;;;22.70;30.40;;;;;;5034525;28;20395;-63
2021/03/18 04:25:36;;;;;;;0.90;0.50;;;22.60;31.00;;;;;;5034114;28;20387;-62
2021/03/18 04:28:03;;;;;;;1.20;0.50;;;22.60;31.20;;;;;;5034547;28;20875;-62
2021/03/18 04:30:30;;;;;;;0.80;0.40;;;22.70;31.20;;;;;;5033097;28;20759;-63
2021/03/18 04:32:58;;;;;;;0.90;0.43;;;22.60;31.00;;;;;;5033044;28;20962;-63
2021/03/18 04:35:25;;;;;;;0.93;0.50;;;22.60;30.90;;;;;;5034628;28;20783;-63
2021/03/18 04:37:52;;;;;;;1.10;0.50;;;22.60;31.80;;;;;;5033933;28;20429;-61
2021/03/18 04:40:20;;;;;;;0.98;0.50;;;22.60;31.00;;;;;;5034382;28;20878;-63
2021/03/18 04:42:47;;;;;;;1.60;0.60;;;22.60;31.20;;;;;;5033889;28;20933;-63
2021/03/18 04:45:17;;;;;;;1.83;0.60;;;22.60;31.30;;;;;;5032738;28;20808;-62
2021/03/18 04:47:45;;;;;;;1.35;0.70;;;22.60;31.20;;;;;;5034303;28;20394;-63
2021/03/18 04:50:12;;;;;;;1.60;0.50;;;22.60;31.30;;;;;;5034217;28;20387;-63
2021/03/18 04:52:39;;;;;;;1.17;0.55;;;22.50;31.40;;;;;;5034020;28;20387;-63
2021/03/18 04:55:08;;;;;;;2.40;0.50;;;22.50;31.30;;;;;;5034072;28;20863;-63
2021/03/18 04:57:35;;;;;;;0.90;0.50;;;22.50;31.20;;;;;;5034251;28;20459;-63
2021/03/18 05:00:04;;;;;;;1.60;0.60;;;22.50;31.10;;;;;;5034016;28;20406;-62
2021/03/18 05:02:31;;;;;;;1.50;0.50;;;22.50;31.30;;;;;;5033790;28;20960;-63
2021/03/18 05:04:58;;;;;;;1.70;0.70;;;22.50;30.80;;;;;;5033803;28;20454;-64
2021/03/18 05:07:25;;;;;;;1.50;0.60;;;22.40;31.50;;;;;;5033780;28;20423;-62
2021/03/18 05:09:51;;;;;;;1.90;0.60;;;22.40;31.50;;;;;;5033574;28;20383;-63
2021/03/18 05:12:17;;;;;;;2.25;0.60;;;22.40;32.40;;;;;;5032542;28;20391;-63
2021/03/18 05:14:43;;;;;;;1.20;0.60;;;22.40;32.20;;;;;;5033287;28;20883;-63
2021/03/18 05:17:09;;;;;;;1.60;0.77;;;22.40;32.30;;;;;;5033464;28;20950;-63
2021/03/18 05:19:36;;;;;;;1.30;0.50;;;22.30;32.10;;;;;;5028493;28;20537;-63
2021/03/18 05:22:03;;;;;;;4.90;0.73;;;22.30;32.00;;;;;;5013910;28;20399;-64
2021/03/18 05:24:29;;;;;;;2.00;0.63;;;22.30;31.90;;;;;;5013597;28;20399;-63
2021/03/18 05:26:55;;;;;;;1.40;0.60;;;22.30;31.90;;;;;;5013484;28;20475;-63
2021/03/18 05:29:20;;;;;;;1.40;0.60;;;22.30;31.70;;;;;;5013669;28;20443;-63
2021/03/18 05:31:46;;;;;;;2.60;0.60;;;22.30;31.60;;;;;;5017275;28;20409;-63
2021/03/18 05:34:12;;;;;;;2.75;0.70;;;22.30;31.80;;;;;;5023076;28;20442;-63
2021/03/18 05:36:39;;;;;;;1.92;0.70;;;22.20;31.60;;;;;;5020286;28;20916;-64
2021/03/18 05:39:05;;;;;;;1.85;0.90;;;22.20;31.60;;;;;;5020145;28;20410;-63
2021/03/18 05:41:31;;;;;;;2.20;0.70;;;22.20;31.60;;;;;;5019795;28;20387;-63
2021/03/18 05:43:57;;;;;;;2.95;0.90;;;22.20;31.50;;;;;;5021096;28;20820;-61
2021/03/18 05:46:23;;;;;;;2.28;1.10;;;22.20;31.40;;;;;;5022643;28;20389;-62
2021/03/18 05:48:52;;;;;;;2.60;1.00;;;22.10;31.70;;;;;;5020825;28;20392;-63
2021/03/18 05:51:18;;;;;;;2.20;1.30;;;22.20;31.60;;;;;;5021737;28;20385;-63
2021/03/18 05:53:46;;;;;;;4.07;1.20;;;22.20;31.70;;;;;;5022681;28;20462;-63
2021/03/18 05:56:22;;;;;;;2.17;1.20;;;22.20;32.20;;;;;;5023196;28;20885;-64
2021/03/18 05:58:52;;;;;;;2.35;1.20;;;22.20;31.90;;;;;;5031561;28;20426;-63
2021/03/18 06:01:19;;;;;;;3.88;1.48;;;22.10;31.70;;;;;;5032941;28;20440;-63
2021/03/18 06:03:46;;;;;;;4.80;2.03;;;22.10;32.40;;;;;;5030711;28;20906;-61
2021/03/18 06:06:12;;;;;;;2.83;1.50;;;22.10;32.30;;;;;;5026869;28;20395;-62
2021/03/18 06:08:39;;;;;;;2.50;1.50;;;22.10;32.10;;;;;;5016696;28;20389;-62
2021/03/18 06:11:06;;;;;;;2.67;1.52;;;22.10;32.00;;;;;;5010806;28;20392;-63
2021/03/18 06:13:33;;;;;;;3.03;1.63;;;22.00;32.10;;;;;;5011312;28;20396;-63
2021/03/18 06:16:01;;;;;;;3.83;1.80;;;22.10;32.00;;;;;;5012007;28;20738;-63
2021/03/18 06:18:28;;;;;;;3.50;1.67;;;22.10;32.00;;;;;;5011990;28;20837;-63
2021/03/18 06:20:55;;;;;;;3.08;1.73;;;22.10;31.70;;;;;;5011412;28;20531;-63
2021/03/18 06:23:21;;;;;;;4.93;1.65;;;22.00;31.60;;;;;;5010202;28;20885;-63
2021/03/18 06:25:48;;;;;;;3.70;1.85;;;22.00;31.60;;;;;;5012395;28;20438;-63
2021/03/18 06:28:19;;;;;;;2.20;1.50;;;22.00;31.60;;;;;;5012650;28;20520;-63
2021/03/18 06:31:09;;;;;;;2.20;1.60;;;22.00;31.50;;;;;;5011899;28;20385;-63
2021/03/18 06:33:51;;;;;;;2.88;1.70;;;22.00;31.50;;;;;;5012487;28;20761;-63
2021/03/18 06:36:46;;;;;;;2.97;1.75;;;22.00;31.40;;;;;;5012479;28;20737;-63
2021/03/18 06:39:16;;;;;;;4.00;1.80;;;22.00;31.40;;;;;;5007671;28;20409;-63
2021/03/18 06:41:43;;;;;;;2.42;1.63;;;21.90;31.30;;;;;;5012457;28;20389;-63
2021/03/18 06:44:22;;;;;;;2.80;1.70;;;21.90;31.40;;;;;;5012341;28;20403;-63
2021/03/18 06:46:49;;;;;;;2.75;1.90;;;21.90;31.30;;;;;;5011715;28;20435;-63
2021/03/18 06:49:17;;;;;;;3.10;1.65;;;21.90;31.30;;;;;;5010982;28;20439;-62
2021/03/18 06:51:52;;;;;;;2.95;1.90;;;21.90;31.40;;;;;;5012374;28;20439;-63
2021/03/18 06:54:22;;;;;;;2.88;1.70;;;21.80;31.30;;;;;;5012090;28;20873;-63
2021/03/18 06:56:57;;;;;;;2.42;1.75;;;21.80;31.40;;;;;;5013098;28;20464;-63
2021/03/18 06:59:34;;;;;;;2.75;1.90;;;21.80;31.40;;;;;;5020667;28;20393;-63
2021/03/18 07:02:06;;;;;;;3.28;2.00;;;21.80;31.40;;;;;;5020556;28;20387;-63
2021/03/18 07:04:34;;;;;;;2.47;2.03;;;21.80;31.40;;;;;;5021441;28;20388;-62
2021/03/18 07:07:00;;;;;;;3.08;2.10;;;21.80;31.30;;;;;;5019431;28;20381;-63
2021/03/18 07:09:29;;;;;;;2.88;2.05;;;21.80;31.30;;;;;;5020574;28;20402;-64
2021/03/18 07:12:07;;;;;;;2.50;2.00;;;21.80;31.20;;;;;;5021559;28;20494;-63
2021/03/18 07:14:55;;;;;;;4.10;2.28;;;21.70;31.20;;;;;;5031243;28;20387;-61
2021/03/18 07:17:30;;;;;;;3.30;2.50;;;21.70;31.40;;;;;;5031507;28;20863;-63
2021/03/18 07:20:16;;;;;;;3.50;2.30;;;21.70;31.30;;;;;;5031508;28;20400;-62
2021/03/18 07:22:50;;;;;;;3.65;2.40;;;21.70;31.20;;;;;;5045980;28;20756;-62
2021/03/18 07:25:18;;;;;;;4.05;2.60;;;21.70;31.30;;;;;;5031510;28;20386;-62
2021/03/18 07:27:48;;;;;;;3.70;2.33;;;21.70;31.40;;;;;;5031400;28;20394;-63
2021/03/18 07:30:27;;;;;;;3.90;2.35;;;21.70;31.40;;;;;;5028908;28;20570;-63
2021/03/18 07:32:54;;;;;;;4.20;2.67;;;21.70;31.40;;;;;;5021232;28;20499;-63
2021/03/18 07:35:20;;;;;;;4.65;2.42;;;21.70;31.30;;;;;;5013773;28;20515;-63
2021/03/18 07:37:46;;;;;;;3.35;2.40;;;21.70;31.30;;;;;;5019107;28;20459;-62
2021/03/18 07:40:12;;;;;;;3.65;2.20;;;21.70;31.30;;;;;;5027465;28;20945;-63
2021/03/18 07:42:39;;;;;;;3.85;2.47;;;21.70;31.30;;;;;;5020367;28;20885;-62
2021/03/18 07:45:07;;;;;;;2.90;2.13;;;21.70;31.30;;;;;;5018816;28;20425;-61
2021/03/18 07:47:35;;;;;;;3.83;2.40;;;21.70;31.20;;;;;;5020362;28;20393;-63
2021/03/18 07:50:04;;;;;;;3.00;2.27;;;21.70;31.30;;;;;;5020857;28;20479;-63
2021/03/18 07:52:30;;;;;;;3.00;2.20;;;21.70;31.30;;;;;;5025724;28;20387;-63
2021/03/18 07:54:58;;;;;;;2.90;2.20;;;21.70;31.30;;;;;;5030701;28;20379;-62
2021/03/18 07:57:25;;;;;;;3.10;2.17;;;21.60;31.30;;;;;;5030944;28;20442;-63
2021/03/18 07:59:51;;;;;;;2.90;2.20;;;21.70;31.30;;;;;;5031105;28;20918;-62
2021/03/18 08:02:20;;;;;;;2.95;2.03;;;21.60;31.10;;;;;;5024961;28;20407;-63
2021/03/18 08:04:52;;;;;;;2.75;2.00;;;21.60;31.20;;;;;;5011040;28;20381;-62
2021/03/18 08:07:49;;;;;;;2.65;2.17;;;21.60;31.80;;;;;;5022412;28;20407;-63
2021/03/18 08:10:21;;;;;;;3.53;2.30;;;21.60;31.20;;;;;;5014595;28;21385;-63
2021/03/18 08:13:03;;;;;;;3.42;2.20;;;21.60;31.20;;;;;;5019533;28;20442;-62
2021/03/18 08:15:34;;;;;;;2.60;2.00;;;21.60;31.20;;;;;;5010840;28;20472;-62
2021/03/18 08:18:15;;;;;;;3.13;2.00;;;21.60;31.20;;;;;;5009889;28;20474;-63
2021/03/18 08:20:40;;;;;;;3.28;2.22;;;21.60;31.20;;;;;;5012052;28;20455;-62
2021/03/18 08:23:27;;;;;;;2.87;2.20;;;21.60;31.20;;;;;;5010978;28;20408;-63
2021/03/18 08:25:55;;;;;;;2.42;2.20;;;21.50;31.20;;;;;;5017984;28;20928;-62
2021/03/18 08:28:49;;;;;;;3.28;2.20;;;21.60;31.20;;;;;;5014952;28;20493;-62
2021/03/18 08:31:17;;;;;;;2.55;2.00;;;21.50;31.20;;;;;;5030705;28;20419;-63
2021/03/18 08:33:49;;;;;;;2.78;2.10;;;21.50;31.40;;;;;;5028738;28;20428;-63
2021/03/18 08:36:22;;;;;;;2.85;2.10;;;21.50;31.30;;;;;;5010976;28;20424;-63
2021/03/18 08:38:50;;;;;;;2.80;2.08;;;21.50;31.30;;;;;;5009976;28;20420;-63
2021/03/18 08:41:45;;;;;;;2.70;2.00;;;21.50;31.30;;;;;;5026036;28;20394;-63
2021/03/18 08:44:17;;;;;;;3.10;2.35;;;21.50;31.30;;;;;;5010629;28;20943;-63
2021/03/18 08:46:44;;;;;;;2.60;2.28;;;21.50;31.20;;;;;;5012508;28;20892;-63
2021/03/18 08:49:31;;;;;;;2.50;1.95;;;21.50;31.20;;;;;;5014400;28;20388;-63
2021/03/18 08:52:08;;;;;;;2.53;1.85;;;21.50;31.30;;;;;;5013720;28;20396;-63
2021/03/18 08:54:40;;;;;;;2.97;2.17;;;21.50;31.40;;;;;;5012543;28;20393;-63
2021/03/18 08:57:14;;;;;;;2.78;2.10;;;21.50;31.20;;;;;;5012141;28;20405;-62
2021/03/18 08:59:46;;;;;;;2.47;1.90;;;21.40;31.20;;;;;;5012787;28;20916;-62
2021/03/18 09:02:17;;;;;;;3.22;2.30;;;21.50;31.20;;;;;;5012935;28;20457;-62
2021/03/18 09:04:45;;;;;;;2.55;2.20;;;21.40;31.20;;;;;;5012673;28;20744;-63
2021/03/18 09:07:31;;;;;;;2.53;2.15;;;21.40;31.20;;;;;;5028363;28;20415;-62
2021/03/18 09:10:08;;;;;;;2.45;2.17;;;21.40;31.30;;;;;;5014095;28;20389;-63
2021/03/18 09:12:45;;;;;;;2.50;2.10;;;21.40;31.30;;;;;;5029323;28;20396;-63
2021/03/18 09:15:38;;;;;;;2.95;2.00;;;21.40;31.40;;;;;;5014005;28;20432;-62
2021/03/18 09:18:19;;;;;;;2.37;1.90;;;21.40;31.30;;;;;;5027863;28;20447;-62
2021/03/18 09:20:57;;;;;;;2.67;2.10;;;21.40;31.20;;;;;;5013786;28;20385;-62
2021/03/18 09:23:26;;;;;;;2.63;2.20;;;21.30;31.30;;;;;;5029215;28;20471;-63
2021/03/18 09:25:56;;;;;;;2.20;1.90;;;21.30;31.20;;;;;;5013816;28;20907;-63
2021/03/18 09:28:22;;;;;;;2.30;2.00;;;21.30;31.20;;;;;;5013902;28;20385;-62
2021/03/18 09:30:51;;;;;;;2.95;2.28;;;21.30;31.30;;;;;;5013146;28;20745;-62
2021/03/18 09:33:33;;;;;;;2.33;1.98;;;21.30;31.30;;;;;;5013969;28;20423;-63
2021/03/18 09:36:23;;;;;;;2.50;2.00;;;21.30;31.30;;;;;;5013664;28;20976;-62
2021/03/18 09:39:02;;;;;;;2.55;2.15;;;21.30;31.20;;;;;;5012764;28;20435;-62
2021/03/18 09:41:34;;;;;;;2.70;2.27;;;21.30;31.30;;;;;;5013613;28;20385;-62
2021/03/18 09:44:15;;;;;;;2.83;2.10;;;21.30;31.20;;;;;;5013323;28;20396;-62
2021/03/18 09:46:46;;;;;;;2.50;2.25;;;21.30;31.20;;;;;;5012632;28;20373;-61
2021/03/18 09:49:12;;;;;;;2.33;2.05;;;21.30;31.30;;;;;;5013332;28;20730;-63
2021/03/18 09:51:40;;;;;;;2.67;2.20;;;21.30;31.20;;;;;;5013397;28;20389;-63
2021/03/18 09:54:08;;;;;;;2.47;2.17;;;21.20;31.10;;;;;;5013329;28;20385;-63
2021/03/18 09:56:40;;;;;;;2.38;2.10;;;21.30;31.30;;;;;;5013306;28;20738;-63
2021/03/18 09:59:08;;;;;;;2.25;1.90;;;21.20;31.20;;;;;;5027374;28;20421;-62
2021/03/18 10:01:35;;;;;;;2.38;2.10;;;21.30;31.20;;;;;;5013346;28;20417;-62
2021/03/18 10:04:04;;;;;;;3.00;2.50;;;21.20;31.20;;;;;;5013039;28;20472;-63
2021/03/18 10:06:38;;;;;;;2.47;2.10;;;21.20;31.20;;;;;;5013098;28;20753;-63
2021/03/18 10:09:26;;;;;;;2.70;2.30;;;21.20;31.10;;;;;;5012536;28;20968;-63
2021/03/18 10:11:54;;;;;;;2.55;2.15;;;21.20;31.20;;;;;;5012938;28;20389;-63
2021/03/18 10:14:44;;;;;;;2.58;2.20;;;21.20;31.10;;;;;;5012932;28;20868;-62
2021/03/18 10:17:09;;;;;;;2.55;2.25;;;21.20;31.20;;;;;;5012599;28;20432;-63
2021/03/18 10:19:57;;;;;;;2.80;2.27;;;21.20;31.20;;;;;;5012912;28;20991;-64
2021/03/18 10:22:36;;;;;;;2.90;2.40;;;21.20;31.20;;;;;;5012701;28;20396;-63
2021/03/18 10:25:07;;;;;;;2.60;2.40;;;21.20;31.20;;;;;;5012328;28;20393;-63
2021/03/18 10:27:35;;;;;;;2.55;2.20;;;21.20;31.20;;;;;;5012830;28;20392;-63
2021/03/18 10:30:07;;;;;;;3.00;2.47;;;21.20;31.00;;;;;;5012784;28;20464;-63
2021/03/18 10:32:33;;;;;;;2.50;2.30;;;21.20;31.00;;;;;;5012504;28;20411;-62
2021/03/18 10:34:58;;;;;;;2.53;2.30;;;21.20;31.10;;;;;;5012104;28;20401;-63
2021/03/18 10:37:25;;;;;;;2.83;2.42;;;21.20;31.10;;;;;;5012537;28;20408;-62
2021/03/18 10:40:10;;;;;;;2.80;2.50;;;21.20;31.20;;;;;;5012509;28;20487;-62
2021/03/18 10:42:35;;;;;;;3.90;3.03;;;21.20;31.10;;;;;;5012580;28;20404;-62
2021/03/18 10:45:18;;;;;;;3.30;2.63;;;21.20;31.00;;;;;;5011978;28;20396;-63
2021/03/18 10:47:45;;;;;;;3.30;2.80;;;21.10;31.00;;;;;;5012032;28;20395;-62
2021/03/18 10:50:13;;;;;;;3.42;2.90;;;21.20;31.00;;;;;;5012293;28;20420;-62
2021/03/18 10:52:39;;;;;;;3.28;2.80;;;21.10;31.70;;;;;;5012326;28;20393;-62
2021/03/18 10:55:07;;;;;;;4.00;3.05;;;21.10;31.10;;;;;;5011714;28;20527;-63
2021/03/18 10:57:35;;;;;;;3.00;2.70;;;21.10;30.90;;;;;;5012090;28;20424;-62
2021/03/18 11:00:07;;;;;;;3.30;2.78;;;21.20;31.10;;;;;;5012088;28;20439;-63
2021/03/18 11:02:33;;;;;;;3.47;2.90;;;21.10;30.90;;;;;;5011741;28;20966;-63
2021/03/18 11:05:02;;;;;;;3.55;2.92;;;21.20;30.90;;;;;;5011089;28;20381;-62
2021/03/18 11:07:29;;;;;;;3.40;3.00;;;21.20;30.80;;;;;;5012112;28;20418;-63
2021/03/18 11:10:15;;;;;;;3.25;2.85;;;21.20;30.90;;;;;;5011060;28;20399;-63
2021/03/18 11:12:54;;;;;;;2.88;2.45;;;21.20;30.90;;;;;;5012086;28;20450;-62
2021/03/18 11:15:22;;;;;;;3.45;2.65;;;21.20;30.90;;;;;;5011991;28;20876;-62
2021/03/18 11:18:06;;;;;;;3.25;2.70;;;21.20;30.70;;;;;;5011803;28;20420;-63
2021/03/18 11:20:36;;;;;;;2.83;2.45;;;21.20;30.90;;;;;;5012289;28;20435;-62
2021/03/18 11:23:02;;;;;;;3.15;2.60;;;21.20;30.80;;;;;;5011665;28;20393;-62
2021/03/18 11:25:28;;;;;;;2.85;2.55;;;21.20;30.80;;;;;;5011882;28;20427;-63
2021/03/18 11:27:54;;;;;;;3.17;2.70;;;21.20;30.80;;;;;;5011989;28;20396;-63
2021/03/18 11:30:40;;;;;;;2.97;2.60;;;21.20;30.70;;;;;;5011841;28;20919;-63
2021/03/18 11:33:32;;;;;;;3.15;2.70;;;21.20;30.70;;;;;;5011203;28;20475;-62
2021/03/18 11:36:01;;;;;;;2.85;2.47;;;21.20;30.80;;;;;;5011231;28;20890;-63
2021/03/18 11:38:27;;;;;;;3.10;2.77;;;21.10;30.80;;;;;;5011657;28;20478;-63
2021/03/18 11:40:52;;;;;;;2.85;2.40;;;21.10;30.60;;;;;;5011414;28;20492;-62
2021/03/18 11:43:18;;;;;;;3.05;2.47;;;21.10;30.90;;;;;;5011733;28;21088;-62
2021/03/18 11:45:44;;;;;;;2.50;2.20;;;21.10;30.80;;;;;;5011673;28;20411;-62
2021/03/18 11:48:10;;;;;;;3.08;2.58;;;21.10;30.80;;;;;;5011243;28;20397;-63
2021/03/18 11:50:37;;;;;;;2.60;2.20;;;21.10;30.80;;;;;;5011578;28;20380;-63
2021/03/18 11:53:04;;;;;;;2.60;2.30;;;21.00;30.90;;;;;;5011123;28;20388;-63
2021/03/18 11:55:29;;;;;;;2.90;2.50;;;21.00;31.00;;;;;;5011628;28;20448;-63
2021/03/18 11:57:58;;;;;;;2.83;2.50;;;21.00;30.90;;;;;;5011443;28;20883;-63
2021/03/18 12:00:29;;;;;;;2.80;2.50;;;21.00;30.90;;;;;;5011656;28;20476;-63
2021/03/18 12:02:56;;;;;;;2.67;2.38;;;21.00;30.80;;;;;;5010971;28;20889;-62
2021/03/18 12:05:23;;;;;;;2.50;2.30;;;21.00;30.90;;;;;;5011609;28;20396;-64
2021/03/18 12:07:49;;;;;;;2.55;2.20;;;20.90;31.00;;;;;;5026779;28;20415;-62
2021/03/18 12:10:15;;;;;;;2.30;2.10;;;21.00;31.00;;;;;;5011409;28;20405;-62
2021/03/18 12:12:41;;;;;;;2.33;2.13;;;21.10;31.00;;;;;;5011458;28;20392;-62
2021/03/18 12:15:09;;;;;;;2.40;2.10;;;21.10;30.80;;;;;;5026078;28;20397;-62
2021/03/18 12:17:36;;;;;;;2.20;2.00;;;21.20;30.80;;;;;;5011291;28;20424;-63
2021/03/18 12:20:04;;;;;;;2.25;2.00;;;21.30;30.70;;;;;;5010841;28;20381;-62
2021/03/18 12:22:30;;;;;;;2.60;2.15;;;21.30;30.60;;;;;;5029141;28;20503;-63
2021/03/18 12:24:57;;;;;;;2.33;2.03;;;21.40;30.60;;;;;;5014551;28;20924;-62
2021/03/18 12:27:22;;;;;;;2.28;2.00;;;21.40;30.60;;;;;;5014989;28;20396;-62
2021/03/18 12:29:48;;;;;;;2.20;1.90;;;21.40;30.50;;;;;;5014927;28;20792;-62
2021/03/18 12:32:14;;;;;;;2.40;2.00;;;21.50;30.60;;;;;;5014769;28;20904;-63
2021/03/18 12:34:39;;;;;;;2.63;2.15;;;21.50;30.50;;;;;;5014849;28;20385;-62
2021/03/18 12:37:05;;;;;;;2.20;1.80;;;21.50;30.50;;;;;;5014243;28;20408;-62
2021/03/18 12:39:31;;;;;;;1.95;1.70;;;21.50;30.40;;;;;;5014689;28;20400;-63
2021/03/18 12:41:57;;;;;;;2.33;2.00;;;21.50;30.30;;;;;;5014694;28;20428;-63
2021/03/18 12:44:22;;;;;;;2.20;1.73;;;21.60;30.60;;;;;;5014655;28;20438;-63
2021/03/18 12:46:48;;;;;;;2.15;1.95;;;21.70;30.20;;;;;;5014539;28;20401;-62
2021/03/18 12:49:14;;;;;;;2.20;1.70;;;21.70;30.20;;;;;;5014374;28;20483;-62
2021/03/18 12:51:40;;;;;;;2.10;1.70;;;21.80;30.00;;;;;;5014243;28;20400;-62
2021/03/18 12:54:06;;;;;;;2.37;1.80;;;21.90;30.00;;;;;;5014412;28;20476;-62
2021/03/18 12:56:32;;;;;;;2.22;1.90;;;22.00;30.00;;;;;;5014457;28;20427;-63
2021/03/18 12:58:58;;;;;;;2.28;1.90;;;22.10;30.00;;;;;;5029008;28;20428;-62
2021/03/18 13:01:24;;;;;;;2.17;1.70;;;22.10;29.90;;;;;;5014385;28;20389;-63
2021/03/18 13:03:50;;;;;;;2.10;1.80;;;22.10;29.80;;;;;;5014342;28;20467;-62